You are not logged in, Click here to log in
北京首都國際機場(PEK) / ZBAA 大陸北京市顺义区
ICAO: ZBAA Country: 大陸北京市顺义区
Latitude: 40.0799 Longitude: 116.603
Total Arrivals: 44 Total Departures: 52
Latest Arrival: MU744 (RJGG-ZBAA)Arthur. Kung Latest Departure: MU271 (ZBAA-ZSPD)Arthur. Kung
Scenery:
METAR : ZBAA 090730Z 19002MPS 160V230 3500 HZ NSC 06/M04 Q1017 NOSIG

北京首都國際機場(PEK)

You are accessing this site from IP address 100.26.176.182. Virtual Airline. CMS by phpVMS.Website designed by Zumeweb and edited by Theo Bearman.
There is 0 User(s) Online: | and 12 Guest(s) Online.
All information on this site is for fight simulation purposes only. This site is for flight logging for pilots of Virtual Airline&模擬飛行論壇 FlySim only.